Time;durP1;ratioP1;P1;durP2;ratioP2;P2;SDS_P1;SDS_P2;PMS_P1;PMS_P2;Temp;Humidity;BMP_temperature;BMP_pressure;BME280_temperature;BME280_humidity;BME280_pressure;Samples;Min_cycle;Max_cycle;Signal;HPM_P1;HPM_P2
2022/06/02 00:02:34;;;;;;;16.08;10.85;;;20.90;99.90;;;;;;4992832;28;20129;-72
2022/06/02 00:05:22;;;;;;;26.75;11.25;;;20.90;99.90;;;;;;4993066;28;20440;-71
2022/06/02 00:08:26;;;;;;;18.77;12.02;;;20.90;99.90;;;;;;4993071;28;20026;-73
2022/06/02 00:11:26;;;;;;;15.48;9.68;;;20.90;99.90;;;;;;4992991;28;20373;-73
2022/06/02 00:14:05;;;;;;;19.25;11.15;;;20.80;99.90;;;;;;4992252;28;20049;-71
2022/06/02 00:16:56;;;;;;;25.20;16.73;;;20.80;99.90;;;;;;4983150;28;20077;-69
2022/06/02 00:19:44;;;;;;;23.60;15.60;;;20.80;99.90;;;;;;4991843;28;20105;-72
2022/06/02 00:22:22;;;;;;;20.38;14.85;;;20.80;99.90;;;;;;4991911;28;20061;-68
2022/06/02 00:25:00;;;;;;;20.98;13.10;;;20.70;99.90;;;;;;4991859;28;20030;-72
2022/06/02 00:27:42;;;;;;;22.55;12.07;;;20.70;99.90;;;;;;4991482;28;20066;-73
2022/06/02 00:30:34;;;;;;;;;;;20.60;99.90;;;;;;4991870;28;20381;-70
2022/06/02 00:33:28;;;;;;;17.90;12.80;;;20.50;99.90;;;;;;4989639;28;19924;-72
2022/06/02 00:36:05;;;;;;;21.83;12.18;;;20.40;99.90;;;;;;4992126;28;20034;-71
2022/06/02 00:38:35;;;;;;;19.27;13.07;;;20.30;99.90;;;;;;4992201;28;20062;-72
2022/06/02 00:41:31;;;;;;;17.13;12.07;;;20.10;99.90;;;;;;4991640;28;20026;-66
2022/06/02 00:44:11;;;;;;;23.92;13.38;;;20.10;99.90;;;;;;4984136;28;20108;-70
2022/06/02 00:46:36;;;;;;;21.95;14.48;;;20.00;99.90;;;;;;4985190;28;20053;-72
2022/06/02 00:49:14;;;;;;;23.08;14.05;;;20.10;99.90;;;;;;4991795;28;20050;-72
2022/06/02 00:52:05;;;;;;;27.13;14.57;;;20.00;99.90;;;;;;4992995;28;20022;-72
2022/06/02 00:57:44;;;;;;;;;;;20.00;99.90;;;;;;4992518;28;20027;-72
2022/06/02 01:00:11;;;;;;;22.67;12.93;;;20.00;99.90;;;;;;4991859;28;19995;-71
2022/06/02 01:03:04;;;;;;;24.83;13.05;;;19.90;99.90;;;;;;4991928;28;20030;-71
2022/06/02 01:05:41;;;;;;;21.75;13.30;;;20.00;99.90;;;;;;4991607;28;20385;-71
2022/06/02 01:08:13;;;;;;;23.05;12.65;;;20.00;99.90;;;;;;4991462;28;20100;-70
2022/06/02 01:10:42;;;;;;;19.13;11.52;;;20.10;99.90;;;;;;4992014;28;20023;-71
2022/06/02 01:13:14;;;;;;;20.63;13.15;;;20.00;99.90;;;;;;4991751;28;20143;-70
2022/06/02 01:15:39;;;;;;;20.45;12.52;;;20.00;99.90;;;;;;4990946;28;20030;-72
2022/06/02 01:18:26;;;;;;;24.27;13.02;;;20.00;99.90;;;;;;4987614;28;20027;-72
2022/06/02 01:20:55;;;;;;;21.38;13.18;;;20.10;99.90;;;;;;4997876;28;20022;-71
2022/06/02 01:23:33;;;;;;;23.25;13.45;;;20.00;99.90;;;;;;4990481;28;20089;-73
2022/06/02 01:26:02;;;;;;;18.48;12.15;;;20.10;99.90;;;;;;4991621;28;20027;-71
2022/06/02 01:29:23;;;;;;;18.17;12.20;;;20.10;99.90;;;;;;4991890;28;20085;-72
2022/06/02 01:31:54;;;;;;;22.63;11.18;;;20.10;99.90;;;;;;4932192;29;20116;-69
2022/06/02 01:34:53;;;;;;;18.88;12.82;;;20.10;99.90;;;;;;4937321;29;20071;-72
2022/06/02 01:37:43;;;;;;;18.55;12.15;;;20.00;99.90;;;;;;4884235;29;20045;-72
2022/06/02 01:40:22;;;;;;;21.00;13.10;;;19.90;99.90;;;;;;4869082;29;20071;-72
2022/06/02 01:43:14;;;;;;;21.33;12.45;;;19.90;99.90;;;;;;4881427;29;20205;-72
2022/06/02 01:45:51;;;;;;;18.57;12.47;;;20.00;99.90;;;;;;4875443;29;20124;-72
2022/06/02 01:48:38;;;;;;;20.25;13.43;;;20.00;99.90;;;;;;4872053;29;20045;-71
2022/06/02 01:51:34;;;;;;;24.02;13.38;;;20.00;99.90;;;;;;4861103;29;20167;-71
2022/06/02 01:54:15;;;;;;;22.38;13.48;;;20.00;99.90;;;;;;4875400;29;20162;-72
2022/06/02 01:56:46;;;;;;;22.07;12.90;;;20.00;99.90;;;;;;4864242;29;20045;-71
2022/06/02 01:59:37;;;;;;;22.95;12.43;;;20.00;99.90;;;;;;4865652;29;20288;-72
2022/06/02 02:02:10;;;;;;;20.20;13.63;;;20.00;99.90;;;;;;4867897;29;20037;-72
2022/06/02 02:04:50;;;;;;;18.67;12.82;;;20.00;99.90;;;;;;4878885;29;20060;-73
2022/06/02 02:07:32;;;;;;;21.55;12.70;;;19.80;99.90;;;;;;4878593;29;20053;-72
2022/06/02 02:10:03;;;;;;;18.13;12.38;;;19.90;99.90;;;;;;4877579;29;20070;-72
2022/06/02 02:12:50;;;;;;;18.63;12.45;;;19.90;99.90;;;;;;4900108;28;20054;-71
2022/06/02 02:15:38;;;;;;;20.92;13.48;;;19.90;99.90;;;;;;4983563;28;20516;-72
2022/06/02 02:18:40;;;;;;;20.58;12.68;;;19.90;99.90;;;;;;4986104;28;20034;-68
2022/06/02 02:21:27;;;;;;;19.15;13.07;;;19.90;99.90;;;;;;4979486;28;20039;-68
2022/06/02 02:24:18;;;;;;;21.98;15.25;;;19.90;99.90;;;;;;4971132;28;20507;-72
2022/06/02 02:26:52;;;;;;;23.25;13.73;;;19.80;99.90;;;;;;4975140;28;20166;-66
2022/06/02 02:29:18;;;;;;;20.85;12.88;;;19.80;99.90;;;;;;4983610;28;20055;-72
2022/06/02 02:32:12;;;;;;;21.83;13.77;;;19.80;99.90;;;;;;4960902;28;20477;-72
2022/06/02 02:35:15;;;;;;;21.30;12.60;;;19.70;99.90;;;;;;4975760;28;20093;-72
2022/06/02 02:37:54;;;;;;;22.95;13.13;;;19.70;99.90;;;;;;4991556;28;20110;-66
2022/06/02 02:40:20;;;;;;;21.42;13.20;;;19.60;99.90;;;;;;4978428;28;20075;-69
2022/06/02 02:42:51;;;;;;;20.55;13.70;;;19.60;99.90;;;;;;4987212;28;20027;-71
2022/06/02 02:45:38;;;;;;;21.77;13.30;;;19.60;99.90;;;;;;4985055;28;20473;-71
2022/06/02 02:48:34;;;;;;;21.13;14.70;;;19.60;99.90;;;;;;4992059;28;20441;-66
2022/06/02 02:51:38;;;;;;;20.45;14.23;;;19.70;99.90;;;;;;5005377;28;20121;-65
2022/06/02 02:54:17;;;;;;;18.45;12.40;;;19.70;99.90;;;;;;4993557;28;20055;-70
2022/06/02 02:56:55;;;;;;;24.33;13.93;;;19.70;99.90;;;;;;4986971;28;20027;-67
2022/06/02 02:59:58;;;;;;;21.38;12.73;;;19.80;99.90;;;;;;4991235;28;20037;-67
2022/06/02 03:02:44;;;;;;;24.63;14.63;;;19.80;99.90;;;;;;4993782;28;20065;-65
2022/06/02 03:05:28;;;;;;;28.58;14.63;;;19.70;99.90;;;;;;5001281;28;20097;-67
2022/06/02 03:08:04;;;;;;;20.77;14.20;;;19.60;99.90;;;;;;4991568;28;20041;-65
2022/06/02 03:10:37;;;;;;;21.83;13.80;;;19.70;99.90;;;;;;4984774;28;20117;-71
2022/06/02 03:13:21;;;;;;;24.55;14.48;;;19.80;99.90;;;;;;4987842;28;20045;-69
2022/06/02 03:16:00;;;;;;;25.88;12.65;;;19.90;99.90;;;;;;4992244;28;20354;-69
2022/06/02 03:18:45;;;;;;;23.30;13.75;;;19.90;99.90;;;;;;4993142;28;20053;-72
2022/06/02 03:21:29;;;;;;;21.25;13.80;;;19.90;99.90;;;;;;4989599;28;20416;-72
2022/06/02 03:24:07;;;;;;;18.88;13.63;;;20.00;99.90;;;;;;4986118;28;20069;-69
2022/06/02 03:27:01;;;;;;;20.73;12.88;;;20.00;99.90;;;;;;4984538;28;20166;-73
2022/06/02 03:29:43;;;;;;;21.10;12.82;;;20.00;99.90;;;;;;4987574;28;20082;-68
2022/06/02 03:32:17;;;;;;;22.50;12.68;;;20.00;99.90;;;;;;4992900;28;20535;-68
2022/06/02 03:34:55;;;;;;;20.50;12.30;;;20.10;99.90;;;;;;4993375;28;20026;-68
2022/06/02 03:38:08;;;;;;;22.88;13.98;;;20.00;99.90;;;;;;4992196;28;20113;-69
2022/06/02 03:40:49;;;;;;;18.35;12.60;;;19.90;99.90;;;;;;4971338;28;20062;-72
2022/06/02 03:43:46;;;;;;;22.95;13.85;;;19.90;99.90;;;;;;4980572;28;20054;-72
2022/06/02 03:46:30;;;;;;;22.70;13.23;;;20.00;99.90;;;;;;4987761;28;20133;-72
2022/06/02 03:49:01;;;;;;;19.60;12.50;;;20.00;99.90;;;;;;4980023;28;20597;-67
2022/06/02 03:51:57;;;;;;;22.80;13.95;;;20.10;99.90;;;;;;4987664;28;20208;-73
2022/06/02 03:55:00;;;;;;;23.38;12.65;;;20.30;99.90;;;;;;4985715;28;20121;-69
2022/06/02 03:57:46;;;;;;;22.90;12.23;;;20.70;99.90;;;;;;4990598;28;20528;-72
2022/06/02 04:00:15;;;;;;;17.75;11.77;;;21.60;99.90;;;;;;4959456;28;20104;-70
2022/06/02 04:02:50;;;;;;;21.05;12.15;;;;;;;;;;4975857;28;20026;-70
2022/06/02 04:05:50;;;;;;;18.02;11.52;;;22.80;99.90;;;;;;4972729;28;20087;-70
2022/06/02 04:08:42;;;;;;;24.92;12.40;;;22.90;99.90;;;;;;4984196;28;20030;-70
2022/06/02 04:11:27;;;;;;;20.42;13.10;;;23.30;99.90;;;;;;4991086;28;20608;-69
2022/06/02 04:14:16;;;;;;;21.67;13.13;;;23.70;99.90;;;;;;4968515;28;20042;-73
2022/06/02 04:16:59;;;;;;;24.83;13.25;;;24.30;99.90;;;;;;4975378;28;20426;-73
2022/06/02 04:22:43;;;;;;;19.17;12.98;;;25.20;99.90;;;;;;4970516;28;20077;-72
2022/06/02 04:25:44;;;;;;;21.30;12.10;;;26.00;99.90;;;;;;4909145;29;20077;-73
2022/06/02 04:28:24;;;;;;;27.85;13.43;;;26.40;99.90;;;;;;4893341;29;20116;-68
2022/06/02 04:31:13;;;;;;;22.70;13.02;;;27.00;99.90;;;;;;4895478;29;20056;-73
2022/06/02 04:34:12;;;;;;;21.45;12.05;;;27.10;99.90;;;;;;4893978;29;20052;-68
2022/06/02 04:36:38;;;;;;;24.17;12.38;;;27.80;99.90;;;;;;4900846;29;20486;-74
2022/06/02 04:39:27;;;;;;;24.50;12.15;;;27.60;99.90;;;;;;4913015;29;20060;-73
2022/06/02 04:42:13;;;;;;;18.27;11.40;;;28.40;99.90;;;;;;4907110;29;20130;-74
2022/06/02 04:44:50;;;;;;;18.95;11.57;;;28.50;99.90;;;;;;4909645;29;20203;-73
2022/06/02 04:47:22;;;;;;;23.75;12.57;;;28.30;99.20;;;;;;4900422;29;20111;-74
2022/06/02 04:50:00;;;;;;;19.05;11.63;;;28.60;99.40;;;;;;4900792;29;20044;-72
2022/06/02 04:52:37;;;;;;;19.13;11.63;;;;;;;;;;4901858;29;20095;-74
2022/06/02 04:55:21;;;;;;;20.83;12.73;;;28.60;98.10;;;;;;4892686;29;20090;-74
2022/06/02 04:58:09;;;;;;;18.63;12.55;;;28.00;99.60;;;;;;4899064;29;20050;-73
2022/06/02 05:00:57;;;;;;;19.25;12.27;;;27.00;99.90;;;;;;4894537;29;20127;-65
2022/06/02 05:03:43;;;;;;;22.00;14.02;;;27.00;99.90;;;;;;4972629;28;20074;-73
2022/06/02 05:06:36;;;;;;;25.33;15.73;;;26.30;99.90;;;;;;4985761;28;20074;-69
2022/06/02 05:09:35;;;;;;;25.77;15.95;;;25.90;99.90;;;;;;4969982;28;20125;-71
2022/06/02 05:12:10;;;;;;;22.13;15.00;;;25.60;99.90;;;;;;4994433;28;20112;-73
2022/06/02 05:15:06;;;;;;;24.38;14.80;;;25.30;99.90;;;;;;4982216;28;20058;-72
2022/06/02 05:17:58;;;;;;;23.70;15.55;;;25.40;99.90;;;;;;4955761;28;20142;-72
2022/06/02 05:20:39;;;;;;;20.00;14.73;;;25.40;99.90;;;;;;4955770;28;20569;-73
2022/06/02 05:23:17;;;;;;;22.98;15.32;;;25.40;99.90;;;;;;4952919;28;20689;-70
2022/06/02 05:26:02;;;;;;;23.52;14.77;;;25.60;99.90;;;;;;4970944;28;20121;-73
2022/06/02 05:29:01;;;;;;;25.42;15.45;;;25.30;99.90;;;;;;4974312;28;20034;-71
2022/06/02 05:31:46;;;;;;;24.52;16.02;;;25.20;99.90;;;;;;4984350;28;20048;-71
2022/06/02 05:34:23;;;;;;;24.75;15.77;;;25.00;99.90;;;;;;4994957;28;20118;-73
2022/06/02 05:37:08;;;;;;;25.38;16.98;;;25.00;99.90;;;;;;4995108;28;20440;-71
2022/06/02 05:39:49;;;;;;;22.70;16.30;;;25.00;99.90;;;;;;4995123;28;20088;-72
2022/06/02 05:42:35;;;;;;;25.40;15.90;;;25.20;99.90;;;;;;4994644;28;20531;-72
2022/06/02 05:45:24;;;;;;;21.80;15.63;;;25.40;99.90;;;;;;4994877;28;20037;-72
2022/06/02 05:47:50;;;;;;;21.52;15.13;;;25.70;99.90;;;;;;4995425;28;20042;-73
2022/06/02 05:50:31;;;;;;;22.15;13.80;;;26.10;99.90;;;;;;4994970;28;20034;-73
2022/06/02 05:53:16;;;;;;;19.25;13.75;;;26.30;99.90;;;;;;4995072;28;20213;-73
2022/06/02 05:55:52;;;;;;;24.58;14.90;;;26.40;99.90;;;;;;4994903;28;20018;-72
2022/06/02 05:58:28;;;;;;;26.50;13.38;;;26.60;99.90;;;;;;4995033;28;20092;-73
2022/06/02 06:01:30;;;;;;;20.02;13.52;;;26.60;99.90;;;;;;4995145;28;20469;-73
2022/06/02 06:04:04;;;;;;;24.45;13.90;;;26.60;99.90;;;;;;4993396;28;20049;-73
2022/06/02 06:07:01;;;;;;;24.10;14.75;;;26.60;99.90;;;;;;4994638;28;20069;-73
2022/06/02 06:09:59;;;;;;;20.95;13.48;;;26.40;99.90;;;;;;4992056;28;20052;-72
2022/06/02 06:12:51;;;;;;;20.77;12.60;;;26.20;99.90;;;;;;4980159;28;20058;-72
2022/06/02 06:15:20;;;;;;;24.23;11.27;;;26.10;99.90;;;;;;4992222;28;20052;-73
2022/06/02 06:18:08;;;;;;;21.38;11.52;;;26.30;99.90;;;;;;4975311;28;20432;-73
2022/06/02 06:21:06;;;;;;;18.70;11.23;;;26.30;99.90;;;;;;4992264;28;20397;-73
2022/06/02 06:23:56;;;;;;;15.77;9.48;;;26.20;99.90;;;;;;4934527;29;20043;-73
2022/06/02 06:26:45;;;;;;;19.60;10.02;;;26.60;99.90;;;;;;4934176;29;20115;-73
2022/06/02 06:29:22;;;;;;;19.80;10.85;;;26.70;99.90;;;;;;4933825;29;20086;-72
2022/06/02 06:31:54;;;;;;;16.45;9.15;;;27.20;99.90;;;;;;4934225;29;20224;-72
2022/06/02 06:34:43;;;;;;;14.35;8.60;;;27.40;99.90;;;;;;4929533;29;20039;-72
2022/06/02 06:37:27;;;;;;;15.02;8.02;;;27.20;99.90;;;;;;4930321;29;20392;-72
2022/06/02 06:40:10;;;;;;;14.68;8.07;;;26.90;99.90;;;;;;4932743;29;20486;-73
2022/06/02 06:42:53;;;;;;;13.40;7.22;;;27.10;99.90;;;;;;4932317;29;20062;-72
2022/06/02 06:45:31;;;;;;;14.68;7.35;;;27.10;99.90;;;;;;4931284;29;20601;-71
2022/06/02 06:48:06;;;;;;;16.55;8.13;;;27.20;99.90;;;;;;4950071;29;20059;-71
2022/06/02 06:50:43;;;;;;;14.70;8.00;;;27.20;99.90;;;;;;4952819;29;20553;-72
2022/06/02 06:53:37;;;;;;;16.58;8.13;;;27.10;99.90;;;;;;4952416;28;20054;-71
2022/06/02 06:56:44;;;;;;;12.82;7.65;;;27.30;99.90;;;;;;4952719;29;20039;-71
2022/06/02 06:59:39;;;;;;;14.75;8.52;;;27.50;99.90;;;;;;4981285;28;20030;-72
2022/06/02 07:02:18;;;;;;;15.95;9.18;;;27.50;99.90;;;;;;4983643;28;20580;-73
2022/06/02 07:04:53;;;;;;;16.85;8.73;;;27.50;99.90;;;;;;4997047;28;20047;-73
2022/06/02 07:07:31;;;;;;;17.45;9.15;;;27.60;99.90;;;;;;4990547;28;20026;-73
2022/06/02 07:10:22;;;;;;;14.80;8.18;;;27.50;99.90;;;;;;4990729;28;20041;-72
2022/06/02 07:13:03;;;;;;;17.90;8.75;;;27.00;99.90;;;;;;4940149;29;20051;-72
2022/06/02 07:15:39;;;;;;;13.57;8.80;;;26.30;99.90;;;;;;4936730;29;20477;-72
2022/06/02 07:18:13;;;;;;;19.95;8.88;;;26.40;99.90;;;;;;4951452;29;20126;-72
2022/06/02 07:21:16;;;;;;;13.52;8.90;;;26.70;99.90;;;;;;4970931;28;20070;-72
2022/06/02 07:24:03;;;;;;;14.73;8.73;;;27.20;99.90;;;;;;4971073;28;20588;-72
2022/06/02 07:26:34;;;;;;;15.77;9.25;;;26.90;99.90;;;;;;4961698;28;20090;-73
2022/06/02 07:29:20;;;;;;;17.48;8.77;;;26.90;99.90;;;;;;4951978;29;20043;-73
2022/06/02 07:31:52;;;;;;;16.40;9.00;;;26.50;99.90;;;;;;4971561;28;20477;-73
2022/06/02 07:34:48;;;;;;;14.95;9.43;;;26.50;99.90;;;;;;4969823;28;20248;-73
2022/06/02 07:37:43;;;;;;;15.05;9.43;;;26.70;99.90;;;;;;4952715;28;20395;-72
2022/06/02 07:40:14;;;;;;;17.35;9.40;;;26.60;99.90;;;;;;4951266;29;20550;-72
2022/06/02 07:43:08;;;;;;;13.02;8.85;;;26.50;99.90;;;;;;4950945;29;20059;-73
2022/06/02 07:46:21;;;;;;;14.10;7.35;;;26.90;99.90;;;;;;4951550;29;20444;-73
2022/06/02 07:49:06;;;;;;;13.82;8.68;;;26.90;99.90;;;;;;4915354;29;20052;-72
2022/06/02 07:51:43;;;;;;;14.80;8.23;;;26.90;99.90;;;;;;4951073;28;20027;-72
2022/06/02 07:54:39;;;;;;;17.85;8.20;;;27.10;99.90;;;;;;4951546;28;20046;-72
2022/06/02 07:57:13;;;;;;;16.77;8.30;;;27.40;99.90;;;;;;4913496;29;20036;-72
2022/06/02 07:59:45;;;;;;;18.92;8.40;;;27.50;99.90;;;;;;4912888;29;20048;-73
2022/06/02 08:02:52;;;;;;;16.42;7.70;;;27.30;99.90;;;;;;4912854;29;20044;-73
2022/06/02 08:05:22;;;;;;;10.65;6.35;;;27.40;99.90;;;;;;4912845;29;20337;-72
2022/06/02 08:07:56;;;;;;;15.20;7.35;;;27.10;99.90;;;;;;4912982;28;20048;-73
2022/06/02 08:10:46;;;;;;;13.18;6.00;;;27.20;99.90;;;;;;4913010;29;20040;-71
2022/06/02 08:13:34;;;;;;;12.57;6.55;;;27.40;99.90;;;;;;4912849;29;20044;-66
2022/06/02 08:16:10;;;;;;;11.93;6.10;;;27.50;99.90;;;;;;4913100;29;20044;-70
2022/06/02 08:18:50;;;;;;;14.50;6.57;;;27.40;99.90;;;;;;4913022;29;20467;-72
2022/06/02 08:21:41;;;;;;;16.73;6.82;;;27.60;99.90;;;;;;4912751;29;20071;-71
2022/06/02 08:24:33;;;;;;;22.73;7.28;;;27.70;99.90;;;;;;4915125;29;20586;-67
2022/06/02 08:27:01;;;;;;;12.68;6.47;;;28.00;99.90;;;;;;4919027;29;20075;-71
2022/06/02 08:29:36;;;;;;;11.45;7.10;;;27.90;99.80;;;;;;4912117;29;20036;-67
2022/06/02 08:32:18;;;;;;;10.40;5.88;;;28.00;99.90;;;;;;4911931;29;20494;-71
2022/06/02 08:35:04;;;;;;;12.93;6.63;;;28.40;99.80;;;;;;4969044;28;20096;-68
2022/06/02 08:37:55;;;;;;;16.27;8.20;;;28.40;99.70;;;;;;4991205;28;20067;-72
2022/06/02 08:40:52;;;;;;;11.30;7.17;;;28.40;99.20;;;;;;4991571;28;20085;-72
2022/06/02 08:43:30;;;;;;;13.80;8.02;;;28.30;99.90;;;;;;4979504;28;20124;-72
2022/06/02 08:46:28;;;;;;;16.73;8.05;;;28.10;99.70;;;;;;4993085;28;20554;-72
2022/06/02 08:49:27;;;;;;;20.63;9.10;;;27.90;99.90;;;;;;4954564;29;20062;-72
2022/06/02 08:51:56;;;;;;;13.02;8.27;;;28.00;99.90;;;;;;4954212;29;20075;-71
2022/06/02 08:54:51;;;;;;;14.77;8.25;;;28.10;99.90;;;;;;4954281;29;20074;-72
2022/06/02 08:57:26;;;;;;;13.98;8.98;;;28.40;99.90;;;;;;4954189;28;20031;-71
2022/06/02 09:00:10;;;;;;;17.83;9.90;;;28.40;99.20;;;;;;4954008;28;20090;-73
2022/06/02 09:02:42;;;;;;;16.23;10.25;;;28.20;98.60;;;;;;4954405;29;20032;-72
2022/06/02 09:05:37;;;;;;;15.27;8.90;;;28.40;99.90;;;;;;4954102;28;20031;-72
2022/06/02 09:08:03;;;;;;;17.50;10.73;;;;;;;;;;4954032;28;20031;-71
2022/06/02 09:10:34;;;;;;;20.95;10.07;;;28.50;99.10;;;;;;4954686;28;20023;-72
2022/06/02 09:13:09;;;;;;;22.20;9.88;;;28.80;99.90;;;;;;4953870;29;20051;-72
2022/06/02 09:16:16;;;;;;;20.67;9.93;;;28.80;99.90;;;;;;4954493;29;20481;-72
2022/06/02 09:19:00;;;;;;;14.88;9.95;;;28.70;99.90;;;;;;4954552;29;20114;-72
2022/06/02 09:21:39;;;;;;;17.20;10.65;;;28.90;99.90;;;;;;4954859;29;20045;-68
2022/06/02 09:24:28;;;;;;;13.90;8.88;;;29.00;99.90;;;;;;4954714;29;20078;-70
2022/06/02 09:27:02;;;;;;;13.63;9.65;;;28.90;99.90;;;;;;4989629;28;20045;-71
2022/06/02 09:29:48;;;;;;;16.23;10.50;;;28.80;99.90;;;;;;4995865;28;20030;-72
2022/06/02 09:32:14;;;;;;;16.42;10.18;;;28.60;99.90;;;;;;4995559;28;20029;-70
2022/06/02 09:34:53;;;;;;;19.08;11.30;;;28.40;99.90;;;;;;4977928;28;20484;-72
2022/06/02 09:37:53;;;;;;;15.63;9.77;;;28.20;99.90;;;;;;4994460;28;20034;-72
2022/06/02 09:41:07;;;;;;;19.10;10.10;;;28.30;99.90;;;;;;4994506;28;20037;-70
2022/06/02 09:43:57;;;;;;;18.10;10.80;;;28.20;99.40;;;;;;4992192;28;20051;-72
2022/06/02 09:46:44;;;;;;;16.65;11.02;;;28.50;99.90;;;;;;4992512;28;20049;-72
2022/06/02 09:49:46;;;;;;;15.93;10.32;;;28.70;99.90;;;;;;4992285;28;20504;-70
2022/06/02 09:52:20;;;;;;;17.23;10.95;;;28.70;99.60;;;;;;4992243;28;20046;-71
2022/06/02 09:55:23;;;;;;;19.70;12.15;;;28.80;99.90;;;;;;4992361;28;20030;-70
2022/06/02 09:58:47;;;;;;;19.83;13.23;;;28.80;99.90;;;;;;4933701;29;20036;-71
2022/06/02 10:01:44;;;;;;;23.33;13.55;;;28.40;99.90;;;;;;4841882;29;20129;-71
2022/06/02 10:04:51;;;;;;;19.30;12.77;;;28.80;99.90;;;;;;4848210;29;20058;-70
2022/06/02 10:07:32;;;;;;;21.02;14.27;;;29.20;99.90;;;;;;4840397;29;20045;-72
2022/06/02 10:09:58;;;;;;;18.23;13.70;;;28.90;99.90;;;;;;4840378;29;20053;-73
2022/06/02 10:12:55;;;;;;;20.60;12.60;;;28.90;99.90;;;;;;4822412;29;20054;-72
2022/06/02 10:15:54;;;;;;;20.08;13.68;;;28.90;99.90;;;;;;4840405;29;20405;-71
2022/06/02 10:18:23;;;;;;;20.95;12.95;;;29.10;99.60;;;;;;4855502;29;20045;-72
2022/06/02 10:21:06;;;;;;;16.17;12.32;;;28.80;99.90;;;;;;4858999;29;20528;-72
2022/06/02 10:24:15;;;;;;;19.00;12.63;;;29.00;99.90;;;;;;4858271;29;20044;-73
2022/06/02 10:27:18;;;;;;;17.58;11.70;;;29.10;99.50;;;;;;4848614;29;20461;-71
2022/06/02 10:29:59;;;;;;;19.13;11.85;;;29.20;99.90;;;;;;4848463;29;20038;-72
2022/06/02 10:33:02;;;;;;;19.90;13.18;;;29.30;99.20;;;;;;4858804;29;20597;-71
2022/06/02 10:35:37;;;;;;;16.77;11.27;;;29.10;97.60;;;;;;4902335;29;20091;-72
2022/06/02 10:38:21;;;;;;;19.52;13.13;;;29.40;99.90;;;;;;4921111;29;20044;-72
2022/06/02 10:41:17;;;;;;;20.17;14.23;;;29.30;99.90;;;;;;4933860;29;20035;-72
2022/06/02 10:44:07;;;;;;;20.35;12.02;;;28.80;99.90;;;;;;4947476;28;20050;-73
2022/06/02 10:47:25;;;;;;;18.77;12.68;;;28.90;99.90;;;;;;4981359;28;20038;-72
2022/06/02 10:50:11;;;;;;;20.83;13.40;;;28.80;99.50;;;;;;4991830;28;20039;-72
2022/06/02 10:52:40;;;;;;;16.27;11.50;;;28.90;97.20;;;;;;4991459;28;20088;-71
2022/06/02 10:55:24;;;;;;;17.30;12.23;;;28.90;98.30;;;;;;4991703;28;20101;-72
2022/06/02 10:58:28;;;;;;;19.92;12.13;;;28.90;98.50;;;;;;4991615;28;20080;-72
2022/06/02 11:01:16;;;;;;;18.38;12.52;;;28.90;99.80;;;;;;4993642;28;20413;-71
2022/06/02 11:04:13;;;;;;;18.92;11.60;;;28.90;99.90;;;;;;5000431;28;20045;-72
2022/06/02 11:07:17;;;;;;;26.63;11.82;;;29.20;97.30;;;;;;4991579;28;20077;-72
2022/06/02 11:09:48;;;;;;;17.33;11.23;;;29.00;99.20;;;;;;4932257;29;20043;-71
2022/06/02 11:12:35;;;;;;;17.33;11.00;;;28.80;99.20;;;;;;4933578;29;20155;-72
2022/06/02 11:15:09;;;;;;;16.88;10.75;;;29.00;99.90;;;;;;4922221;29;20433;-71
2022/06/02 11:17:38;;;;;;;15.90;11.35;;;29.10;97.90;;;;;;4933387;29;20042;-72
2022/06/02 11:20:22;;;;;;;16.58;11.13;;;29.10;98.70;;;;;;4933694;29;20115;-72
2022/06/02 11:23:25;;;;;;;21.83;10.82;;;29.00;99.90;;;;;;4933161;29;20155;-73
2022/06/02 11:26:15;;;;;;;17.67;10.57;;;28.90;99.00;;;;;;4941456;29;20050;-72
2022/06/02 11:29:18;;;;;;;19.67;11.25;;;29.10;98.50;;;;;;4946692;29;20052;-72
2022/06/02 11:32:20;;;;;;;16.80;11.13;;;29.20;99.60;;;;;;4952151;29;20070;-73
2022/06/02 11:35:23;;;;;;;19.60;10.88;;;29.40;99.90;;;;;;4952207;29;20073;-72
2022/06/02 11:38:10;;;;;;;15.02;10.15;;;29.40;99.90;;;;;;4952002;28;20028;-73
2022/06/02 11:41:13;;;;;;;15.25;9.65;;;29.30;97.30;;;;;;4951944;29;20067;-72
2022/06/02 11:43:48;;;;;;;15.75;10.82;;;29.30;98.60;;;;;;4932485;29;20074;-72
2022/06/02 11:46:32;;;;;;;17.33;9.80;;;29.50;98.00;;;;;;4979297;28;20042;-71
2022/06/02 11:49:10;;;;;;;14.93;9.00;;;29.50;97.70;;;;;;4989041;28;20038;-73
2022/06/02 11:51:49;;;;;;;15.35;9.10;;;29.60;99.80;;;;;;4992816;28;20030;-73
2022/06/02 11:54:42;;;;;;;19.48;10.80;;;29.60;96.30;;;;;;4993041;28;20038;-71
2022/06/02 11:57:11;;;;;;;34.30;9.60;;;29.60;97.60;;;;;;4993150;28;20045;-73
2022/06/02 12:00:06;;;;;;;15.85;10.18;;;29.50;97.10;;;;;;4992752;28;20421;-72
2022/06/02 12:03:15;;;;;;;16.45;9.43;;;29.40;96.60;;;;;;4992979;28;20031;-73
2022/06/02 12:06:05;;;;;;;15.27;10.25;;;29.30;96.20;;;;;;4951178;28;20047;-72
2022/06/02 12:08:49;;;;;;;14.88;9.77;;;29.60;99.90;;;;;;4951589;29;20032;-72
2022/06/02 12:11:21;;;;;;;16.58;8.85;;;29.60;95.40;;;;;;4951197;28;20046;-72
2022/06/02 12:13:59;;;;;;;14.90;9.43;;;29.40;95.00;;;;;;4950409;29;20051;-70
2022/06/02 12:16:43;;;;;;;15.13;8.60;;;29.40;96.50;;;;;;4951537;29;20049;-73
2022/06/02 12:19:37;;;;;;;14.30;9.07;;;29.40;98.60;;;;;;4951513;28;20090;-72
2022/06/02 12:22:40;;;;;;;13.10;8.68;;;29.30;97.70;;;;;;4938968;29;20477;-73
2022/06/02 12:25:47;;;;;;;16.67;9.25;;;29.40;96.80;;;;;;4944849;28;20039;-73
2022/06/02 12:28:45;;;;;;;14.45;9.38;;;29.30;97.00;;;;;;4949658;29;20069;-74
2022/06/02 12:31:22;;;;;;;18.90;8.73;;;29.50;96.70;;;;;;4893181;29;20379;-74
2022/06/02 12:34:18;;;;;;;15.10;8.23;;;29.70;95.60;;;;;;4893740;29;20053;-72
2022/06/02 12:37:16;;;;;;;13.68;8.82;;;29.60;94.50;;;;;;4894235;29;20044;-72
2022/06/02 12:40:15;;;;;;;18.73;8.63;;;29.30;95.60;;;;;;4894569;29;20040;-74
2022/06/02 12:42:58;;;;;;;15.52;8.05;;;29.30;97.60;;;;;;4907600;29;20108;-74
2022/06/02 12:45:30;;;;;;;15.75;7.38;;;29.40;97.70;;;;;;4913012;29;20032;-73
2022/06/02 12:47:58;;;;;;;;;;;29.30;96.70;;;;;;4913511;29;20044;-71
2022/06/02 12:50:36;;;;;;;11.93;6.88;;;29.20;93.60;;;;;;4913094;29;20298;-74
2022/06/02 12:53:32;;;;;;;12.95;7.65;;;29.20;93.10;;;;;;4912490;29;20164;-72
2022/06/02 12:56:12;;;;;;;14.05;7.63;;;29.20;95.70;;;;;;4913598;29;20040;-73
2022/06/02 12:59:11;;;;;;;14.13;7.38;;;29.40;98.60;;;;;;4913099;29;20055;-71
2022/06/02 13:01:58;;;;;;;12.90;7.57;;;29.60;93.90;;;;;;4913412;29;20040;-73
2022/06/02 13:04:41;;;;;;;15.70;7.78;;;29.80;93.30;;;;;;4913034;29;20039;-72
2022/06/02 13:07:16;;;;;;;16.40;7.38;;;29.50;92.00;;;;;;4923286;28;20155;-72
2022/06/02 13:10:11;;;;;;;15.90;7.95;;;29.50;92.10;;;;;;4972453;28;20035;-72
2022/06/02 13:13:07;;;;;;;13.88;6.93;;;29.60;93.80;;;;;;4972622;28;20340;-72
2022/06/02 13:16:01;;;;;;;14.32;7.10;;;29.70;95.30;;;;;;4961063;28;20042;-71
2022/06/02 13:18:45;;;;;;;11.88;7.60;;;29.70;93.60;;;;;;4972184;28;20031;-73
2022/06/02 13:21:40;;;;;;;15.18;8.68;;;29.40;92.70;;;;;;4971886;28;20113;-74
2022/06/02 13:24:15;;;;;;;14.75;8.48;;;29.50;96.20;;;;;;4971891;28;20027;-74
2022/06/02 13:27:07;;;;;;;13.95;7.22;;;29.80;96.40;;;;;;4972332;28;20489;-76
2022/06/02 13:29:38;;;;;;;;;;;29.90;94.20;;;;;;4972816;28;20035;-75
2022/06/02 13:32:26;;;;;;;12.45;7.53;;;29.60;94.00;;;;;;4974142;28;19918;-73
2022/06/02 13:35:29;;;;;;;13.77;7.78;;;29.40;92.00;;;;;;4976108;28;20087;-73
2022/06/02 13:38:26;;;;;;;10.90;7.28;;;29.20;93.50;;;;;;4974624;28;20093;-73
2022/06/02 13:41:33;;;;;;;10.40;6.68;;;29.50;93.60;;;;;;4975800;28;20030;-73
2022/06/02 13:44:14;;;;;;;12.32;7.55;;;29.50;90.50;;;;;;4971189;28;20055;-73
2022/06/02 13:46:40;;;;;;;12.57;6.87;;;29.50;90.50;;;;;;4975489;28;20031;-74
2022/06/02 13:49:36;;;;;;;12.23;6.82;;;29.60;90.80;;;;;;4974591;28;20041;-73
2022/06/02 13:52:39;;;;;;;11.80;7.75;;;29.70;91.50;;;;;;4975038;28;20067;-75
2022/06/02 13:58:33;;;;;;;14.70;8.45;;;29.90;90.70;;;;;;4974981;28;20102;-74
2022/06/02 14:01:53;;;;;;;15.75;8.05;;;30.00;89.50;;;;;;4974927;28;20030;-73
2022/06/02 14:04:30;;;;;;;13.57;7.93;;;30.00;91.10;;;;;;4914926;29;20039;-73
2022/06/02 14:07:18;;;;;;;13.38;7.00;;;29.80;89.80;;;;;;4913290;29;20062;-76
2022/06/02 14:10:08;;;;;;;12.32;7.30;;;29.80;87.30;;;;;;4913531;29;20032;-75
2022/06/02 14:12:48;;;;;;;12.63;7.40;;;29.90;90.30;;;;;;4898354;29;20518;-67
2022/06/02 14:15:35;;;;;;;15.55;8.13;;;29.90;89.10;;;;;;4905332;29;20084;-74
2022/06/02 14:18:14;;;;;;;11.55;7.10;;;30.00;91.70;;;;;;4912736;29;20036;-74